Time;durP1;ratioP1;P1;durP2;ratioP2;P2;SDS_P1;SDS_P2;PMS_P1;PMS_P2;Temp;Humidity;BMP_temperature;BMP_pressure;BME280_temperature;BME280_humidity;BME280_pressure;Samples;Min_cycle;Max_cycle;Signal;HPM_P1;HPM_P2
2022/09/15 00:02:30;;;;;;;5.67;3.30;;;14.70;97.30;;;;;;4991094;28;20421;-93
2022/09/15 00:04:55;;;;;;;2.37;2.20;;;14.60;97.30;;;;;;5011046;28;20432;-92
2022/09/15 00:07:36;;;;;;;6.17;3.00;;;14.60;97.30;;;;;;5034702;23;20486;-92
2022/09/15 00:10:39;;;;;;;3.67;2.47;;;14.60;97.30;;;;;;5027216;28;20274;-92
2022/09/15 00:13:04;;;;;;;5.53;2.40;;;14.60;97.30;;;;;;5011559;28;20417;-94
2022/09/15 00:15:52;;;;;;;5.63;2.83;;;14.60;97.30;;;;;;5000380;28;20428;-92
2022/09/15 00:18:18;;;;;;;16.87;4.80;;;14.50;97.30;;;;;;5016394;28;20205;-92
2022/09/15 00:20:44;;;;;;;11.10;3.30;;;14.60;97.30;;;;;;4986210;28;20553;-93
2022/09/15 00:23:12;;;;;;;9.23;4.83;;;14.50;97.30;;;;;;4996363;28;20182;-92
2022/09/15 00:25:49;;;;;;;4.83;4.00;;;14.50;97.30;;;;;;5001945;28;20421;-92
2022/09/15 00:28:17;;;;;;;5.07;2.63;;;14.50;97.30;;;;;;4982131;28;20440;-93
2022/09/15 00:30:52;;;;;;;5.63;2.87;;;14.50;97.30;;;;;;4993666;28;20500;-92
2022/09/15 00:33:19;;;;;;;5.33;3.00;;;14.50;97.30;;;;;;4994752;28;20421;-92
2022/09/15 00:35:47;;;;;;;6.50;3.60;;;14.40;97.30;;;;;;4996067;28;20460;-92
2022/09/15 00:38:13;;;;;;;3.80;1.87;;;14.40;97.30;;;;;;5002613;28;20441;-92
2022/09/15 00:40:51;;;;;;;6.47;2.60;;;14.40;97.30;;;;;;4994436;28;20524;-93
2022/09/15 00:43:20;;;;;;;5.80;3.50;;;14.30;97.30;;;;;;4996108;28;20417;-93
2022/09/15 00:45:47;;;;;;;4.33;2.60;;;14.30;97.30;;;;;;4996986;28;20409;-93
2022/09/15 00:48:17;;;;;;;4.60;2.27;;;14.30;97.30;;;;;;4991719;28;20426;-92
2022/09/15 00:50:48;;;;;;;6.40;2.27;;;14.30;97.30;;;;;;4995233;28;20499;-91
2022/09/15 00:53:15;;;;;;;7.73;3.40;;;14.20;97.30;;;;;;4995536;28;20435;-92
2022/09/15 00:55:47;;;;;;;4.63;2.77;;;14.20;97.30;;;;;;5012660;28;20451;-93
2022/09/15 00:58:37;;;;;;;7.13;4.20;;;14.20;97.30;;;;;;4994041;28;20450;-92
2022/09/15 01:01:04;;;;;;;7.07;3.37;;;14.20;97.30;;;;;;4997011;28;20449;-94
2022/09/15 01:03:32;;;;;;;4.47;2.30;;;14.20;97.30;;;;;;4997345;28;20448;-93
2022/09/15 01:06:06;;;;;;;7.43;4.43;;;14.20;97.30;;;;;;4998058;28;20433;-93
2022/09/15 01:08:50;;;;;;;12.50;4.97;;;14.20;97.30;;;;;;4985107;28;20508;-92
2022/09/15 01:11:15;;;;;;;4.80;3.17;;;14.10;97.30;;;;;;4978718;28;20434;-93
2022/09/15 01:13:42;;;;;;;5.23;3.57;;;14.20;97.30;;;;;;5012291;28;20433;-91
2022/09/15 01:16:14;;;;;;;7.80;4.07;;;14.10;97.30;;;;;;4977745;28;20242;-93
2022/09/15 01:19:04;;;;;;;4.27;2.60;;;14.20;97.30;;;;;;5011676;28;20453;-93
2022/09/15 01:21:43;;;;;;;2.87;2.60;;;14.10;97.30;;;;;;5011001;28;20501;-92
2022/09/15 01:24:38;;;;;;;6.30;3.80;;;14.10;97.30;;;;;;4995264;28;20429;-92
2022/09/15 01:27:14;;;;;;;6.33;4.10;;;14.10;97.30;;;;;;4977791;28;20505;-93
2022/09/15 01:29:51;;;;;;;3.97;3.10;;;14.10;97.30;;;;;;4976529;28;20404;-92
2022/09/15 01:33:04;;;;;;;7.53;4.97;;;14.10;97.30;;;;;;4979029;28;20426;-92
2022/09/15 01:35:51;;;;;;;2.13;1.97;;;14.10;97.30;;;;;;4991343;28;20427;-92
2022/09/15 01:38:31;;;;;;;5.60;2.87;;;14.10;97.30;;;;;;4973574;28;20453;-92
2022/09/15 01:41:07;;;;;;;4.40;2.57;;;14.10;97.30;;;;;;4977691;28;20482;-93
2022/09/15 01:43:38;;;;;;;5.70;3.10;;;14.10;97.30;;;;;;4978236;28;20410;-91
2022/09/15 01:46:05;;;;;;;5.93;4.07;;;14.00;97.30;;;;;;4996867;28;20402;-92
2022/09/15 01:48:34;;;;;;;9.30;5.60;;;14.00;97.30;;;;;;4977367;28;20484;-91
2022/09/15 01:51:02;;;;;;;8.10;4.17;;;14.10;97.30;;;;;;4977544;28;20422;-92
2022/09/15 01:53:28;;;;;;;4.50;3.10;;;14.10;97.30;;;;;;4976290;28;20598;-91
2022/09/15 01:56:04;;;;;;;6.13;3.67;;;14.00;97.30;;;;;;4978082;28;20462;-92
2022/09/15 01:58:34;;;;;;;3.80;3.07;;;14.10;97.30;;;;;;4976035;28;20449;-91
2022/09/15 02:01:14;;;;;;;5.37;4.53;;;14.00;97.30;;;;;;4977687;28;20586;-93
2022/09/15 02:03:45;;;;;;;4.30;1.87;;;14.00;97.30;;;;;;4977968;28;20453;-91
2022/09/15 02:06:23;;;;;;;9.20;4.40;;;14.10;97.30;;;;;;5010110;28;20414;-92
2022/09/15 02:08:59;;;;;;;2.97;2.60;;;14.10;97.30;;;;;;4983816;28;20457;-91
2022/09/15 02:11:26;;;;;;;6.07;3.70;;;14.10;97.30;;;;;;4988932;28;20425;-93
2022/09/15 02:14:20;;;;;;;8.43;5.37;;;14.10;97.30;;;;;;4985537;28;20412;-93
2022/09/15 02:16:52;;;;;;;4.80;2.30;;;14.00;97.30;;;;;;4982660;28;20497;-92
2022/09/15 02:19:31;;;;;;;6.27;5.93;;;14.10;97.30;;;;;;4971326;28;20676;-93
2022/09/15 02:22:17;;;;;;;6.30;3.53;;;14.10;97.30;;;;;;4983245;28;20488;-93
2022/09/15 02:24:53;;;;;;;3.53;3.37;;;14.10;97.30;;;;;;5010488;28;20442;-93
2022/09/15 02:27:23;;;;;;;3.93;2.70;;;14.10;97.30;;;;;;5022659;28;20471;-91
2022/09/15 02:29:51;;;;;;;1.90;1.80;;;14.10;97.30;;;;;;4965566;28;20413;-93
2022/09/15 02:32:19;;;;;;;2.60;2.43;;;14.00;97.30;;;;;;5020209;28;20425;-91
2022/09/15 02:34:54;;;;;;;5.70;3.43;;;14.00;97.30;;;;;;4979327;28;20436;-92
2022/09/15 02:37:25;;;;;;;17.00;4.07;;;14.00;97.30;;;;;;4991113;28;20441;-92
2022/09/15 02:39:56;;;;;;;2.60;1.77;;;14.00;97.30;;;;;;4996849;28;20613;-93
2022/09/15 02:42:28;;;;;;;8.50;4.40;;;14.00;97.30;;;;;;4983963;28;20485;-92
2022/09/15 02:44:55;;;;;;;8.83;4.00;;;14.00;97.30;;;;;;4990212;28;20427;-92
2022/09/15 02:47:21;;;;;;;4.87;3.77;;;14.00;97.30;;;;;;4979884;28;20444;-92
2022/09/15 02:49:46;;;;;;;9.87;3.40;;;14.00;97.30;;;;;;4980071;28;20557;-91
2022/09/15 02:52:15;;;;;;;6.33;4.10;;;14.00;97.30;;;;;;5008362;28;20421;-92
2022/09/15 02:54:41;;;;;;;11.33;5.27;;;14.00;97.30;;;;;;4977255;28;20222;-91
2022/09/15 02:57:06;;;;;;;5.00;3.20;;;14.00;97.30;;;;;;4976682;28;20437;-92
2022/09/15 03:02:18;;;;;;;8.03;3.67;;;14.00;97.30;;;;;;4991418;28;20198;-91
2022/09/15 03:04:45;;;;;;;6.30;3.80;;;14.00;97.30;;;;;;5009028;28;20424;-91
2022/09/15 03:07:10;;;;;;;7.67;4.60;;;14.00;97.30;;;;;;4991250;28;20528;-92
2022/09/15 03:09:36;;;;;;;3.33;2.70;;;14.00;97.30;;;;;;4990240;28;20672;-92
2022/09/15 03:12:02;;;;;;;7.20;3.80;;;14.00;97.30;;;;;;5002286;28;20177;-91
2022/09/15 03:14:28;;;;;;;4.27;2.87;;;14.00;97.30;;;;;;4992893;28;20513;-92
2022/09/15 03:16:57;;;;;;;14.67;3.00;;;14.00;97.30;;;;;;4990665;28;20233;-92
2022/09/15 03:19:22;;;;;;;4.47;3.27;;;14.00;97.30;;;;;;4993245;28;20409;-92
2022/09/15 03:21:48;;;;;;;4.03;2.83;;;14.00;97.30;;;;;;5006426;28;20472;-93
2022/09/15 03:24:14;;;;;;;32.27;3.93;;;13.90;97.30;;;;;;4992145;28;20193;-91
2022/09/15 03:26:39;;;;;;;6.60;3.83;;;13.90;97.30;;;;;;4997892;28;20197;-93
2022/09/15 03:29:05;;;;;;;6.33;4.63;;;13.90;97.30;;;;;;4997158;28;20406;-91
2022/09/15 03:31:30;;;;;;;8.67;4.53;;;13.90;97.30;;;;;;4984887;28;20182;-92
2022/09/15 03:33:57;;;;;;;7.90;4.23;;;13.90;97.30;;;;;;4993498;28;20189;-90
2022/09/15 03:36:22;;;;;;;5.30;2.70;;;13.90;97.30;;;;;;4994387;28;20182;-92
2022/09/15 03:38:48;;;;;;;5.23;3.30;;;13.90;97.30;;;;;;4986800;28;20454;-92
2022/09/15 03:41:14;;;;;;;6.27;3.63;;;13.90;97.30;;;;;;4999963;28;20494;-92
2022/09/15 03:43:40;;;;;;;9.00;4.10;;;13.90;97.30;;;;;;5022289;28;20190;-92
2022/09/15 03:46:08;;;;;;;4.87;2.60;;;13.90;97.30;;;;;;4989033;28;20178;-92
2022/09/15 03:48:35;;;;;;;3.60;2.90;;;13.80;97.30;;;;;;4996225;28;20209;-93
2022/09/15 03:51:05;;;;;;;6.90;4.60;;;13.90;97.30;;;;;;4989823;28;20429;-92
2022/09/15 03:53:33;;;;;;;7.00;4.10;;;13.90;97.30;;;;;;4993128;28;20421;-93
2022/09/15 03:56:17;;;;;;;5.30;3.10;;;13.90;97.30;;;;;;4986938;28;20426;-92
2022/09/15 03:58:44;;;;;;;8.40;3.30;;;13.90;97.30;;;;;;4993280;28;20475;-93
2022/09/15 04:01:11;;;;;;;7.27;4.03;;;13.90;97.30;;;;;;4997712;28;20483;-92
2022/09/15 04:03:39;;;;;;;12.30;3.63;;;13.90;97.30;;;;;;4997734;28;20520;-92
2022/09/15 04:06:05;;;;;;;6.83;4.73;;;13.80;97.30;;;;;;4996115;28;20409;-91
2022/09/15 04:08:30;;;;;;;4.40;2.73;;;13.80;97.30;;;;;;5005975;28;20552;-92
2022/09/15 04:10:56;;;;;;;4.70;3.33;;;13.80;97.30;;;;;;4998906;28;20187;-92
2022/09/15 04:13:24;;;;;;;6.97;3.07;;;13.80;97.30;;;;;;4996963;28;20194;-93
2022/09/15 04:18:51;;;;;;;2.77;2.07;;;13.80;97.30;;;;;;5116653;23;20486;-93
2022/09/15 04:21:22;;;;;;;5.33;4.17;;;13.80;97.30;;;;;;5035019;28;20474;-93
2022/09/15 04:23:51;;;;;;;5.77;3.97;;;13.80;97.30;;;;;;5034011;28;20423;-92
2022/09/15 04:26:26;;;;;;;6.77;4.17;;;13.80;97.30;;;;;;5034423;28;20502;-93
2022/09/15 04:28:56;;;;;;;6.70;3.70;;;13.80;97.30;;;;;;5017976;28;20432;-93
2022/09/15 04:31:22;;;;;;;8.60;3.90;;;13.70;97.30;;;;;;5018913;28;20446;-93
2022/09/15 04:33:51;;;;;;;5.20;2.37;;;13.70;97.30;;;;;;5018613;28;20424;-92
2022/09/15 04:36:20;;;;;;;5.90;4.60;;;13.70;97.30;;;;;;5018877;28;20177;-93
2022/09/15 04:38:46;;;;;;;6.87;3.27;;;13.70;97.30;;;;;;5011406;28;20446;-92
2022/09/15 04:41:12;;;;;;;5.37;3.13;;;13.70;97.30;;;;;;5016140;28;20485;-93
2022/09/15 04:43:38;;;;;;;5.20;3.07;;;13.70;97.30;;;;;;5021564;28;20433;-93
2022/09/15 04:46:04;;;;;;;5.17;2.97;;;13.70;97.30;;;;;;5015170;28;20510;-93
2022/09/15 04:48:30;;;;;;;4.50;3.23;;;13.70;97.30;;;;;;5030489;28;20208;-92
2022/09/15 04:51:03;;;;;;;4.30;4.03;;;13.70;97.30;;;;;;5011104;28;20410;-93
2022/09/15 04:53:30;;;;;;;11.53;4.30;;;13.60;97.30;;;;;;5018128;28;20428;-93
2022/09/15 04:56:13;;;;;;;7.87;4.10;;;13.60;97.30;;;;;;5016281;28;20435;-92
2022/09/15 04:58:43;;;;;;;7.40;2.37;;;13.50;97.30;;;;;;5016424;28;20448;-93
2022/09/15 05:01:33;;;;;;;7.70;3.43;;;13.50;97.30;;;;;;5023940;28;20459;-93
2022/09/15 05:04:00;;;;;;;4.50;2.57;;;13.40;97.30;;;;;;5022929;28;20424;-92
2022/09/15 05:06:41;;;;;;;5.80;3.30;;;13.40;97.30;;;;;;5010812;28;20413;-93
2022/09/15 05:09:07;;;;;;;7.67;3.70;;;13.30;97.30;;;;;;5014762;28;20426;-93
2022/09/15 05:11:32;;;;;;;3.53;2.33;;;13.30;97.30;;;;;;5016044;28;20417;-92
2022/09/15 05:13:59;;;;;;;5.37;3.57;;;13.30;97.30;;;;;;5030221;28;20180;-93
2022/09/15 05:16:44;;;;;;;4.17;3.07;;;13.20;97.30;;;;;;5018868;28;20165;-93
2022/09/15 05:19:12;;;;;;;7.13;4.43;;;13.20;97.30;;;;;;5015675;28;20468;-93
2022/09/15 05:21:37;;;;;;;6.40;3.17;;;13.20;97.30;;;;;;4997369;28;20521;-93
2022/09/15 05:24:14;;;;;;;4.57;3.67;;;13.20;97.30;;;;;;4993401;28;20425;-94
2022/09/15 05:26:40;;;;;;;6.30;3.53;;;13.20;97.30;;;;;;5014473;28;20177;-93
2022/09/15 05:39:26;;;;;;;3.93;2.27;;;13.40;97.30;;;;;;5031145;28;20475;-93
2022/09/15 05:42:46;;;;;;;3.67;2.33;;;13.40;97.30;;;;;;5025368;28;20499;-93
2022/09/15 05:45:28;;;;;;;;;;;;;;;;;;;;;
2022/09/15 07:59:05;;;;;;;8.03;4.70;;;14.50;97.30;;;;;;5053418;28;20489;-91
2022/09/15 08:01:35;;;;;;;8.63;5.43;;;14.60;97.30;;;;;;5056669;28;20467;-91
2022/09/15 08:04:01;;;;;;;10.17;4.93;;;14.70;97.30;;;;;;5051243;28;20711;-91
2022/09/15 08:27:10;;;;;;;4.63;2.60;;;15.10;97.30;;;;;;5031727;28;20488;-91
2022/09/15 08:29:35;;;;;;;8.20;5.07;;;15.10;97.30;;;;;;5016583;28;20456;-91
2022/09/15 08:32:01;;;;;;;5.83;2.80;;;15.20;97.30;;;;;;5015310;28;20243;-91
2022/09/15 08:34:28;;;;;;;8.10;3.37;;;15.30;97.30;;;;;;5012076;28;20185;-91
2022/09/15 08:36:54;;;;;;;8.13;3.93;;;15.30;97.30;;;;;;5010817;28;20435;-91
2022/09/15 08:39:43;;;;;;;9.63;4.77;;;15.40;97.30;;;;;;5013191;28;20408;-91
2022/09/15 08:42:35;;;;;;;4.90;3.13;;;15.40;97.30;;;;;;5003426;28;20554;-92
2022/09/15 08:45:26;;;;;;;5.07;4.50;;;15.40;97.30;;;;;;5009087;28;20440;-90
2022/09/15 08:48:17;;;;;;;9.60;5.30;;;15.50;97.30;;;;;;5026478;23;20510;-92
2022/09/15 08:50:55;;;;;;;13.80;4.67;;;15.50;97.30;;;;;;5020201;28;20461;-91
2022/09/15 08:53:46;;;;;;;10.60;6.00;;;15.40;97.30;;;;;;5028220;28;20470;-92
2022/09/15 08:56:24;;;;;;;14.90;5.83;;;15.40;97.30;;;;;;5024750;28;20431;-91
2022/09/15 08:59:16;;;;;;;7.30;2.83;;;15.40;97.30;;;;;;5043462;28;20420;-92
2022/09/15 09:02:23;;;;;;;6.67;4.40;;;15.40;97.30;;;;;;5026344;28;20460;-90
2022/09/15 09:04:58;;;;;;;12.10;4.33;;;15.50;97.30;;;;;;5035286;28;20458;-90
2022/09/15 09:07:48;;;;;;;14.00;6.13;;;15.50;97.30;;;;;;5006617;28;20849;-91
2022/09/15 09:10:37;;;;;;;13.43;5.90;;;15.50;97.30;;;;;;5020506;28;20431;-92
2022/09/15 09:13:17;;;;;;;7.47;3.40;;;15.60;97.30;;;;;;5005176;28;20459;-92
2022/09/15 09:16:11;;;;;;;23.03;4.03;;;15.60;97.30;;;;;;5027973;28;20424;-92
2022/09/15 09:18:53;;;;;;;3.20;1.83;;;15.70;97.30;;;;;;5006707;28;20444;-91
2022/09/15 09:21:26;;;;;;;5.00;2.60;;;15.70;97.30;;;;;;5012537;28;20463;-91
2022/09/15 09:24:04;;;;;;;9.40;5.30;;;15.60;97.30;;;;;;5015673;28;20478;-91
2022/09/15 09:26:33;;;;;;;7.23;5.03;;;15.70;97.30;;;;;;5006641;28;20424;-92
2022/09/15 09:29:03;;;;;;;3.70;2.47;;;15.80;97.30;;;;;;5002688;28;20444;-92
2022/09/15 09:31:58;;;;;;;11.47;3.30;;;15.80;97.30;;;;;;5019010;28;20432;-91
2022/09/15 09:51:46;;;;;;;20.23;3.97;;;16.30;97.30;;;;;;5038417;28;20518;-90
2022/09/15 09:54:16;;;;;;;7.33;3.23;;;16.30;97.30;;;;;;5034074;28;20739;-91
2022/09/15 10:04:22;;;;;;;5.97;2.70;;;16.50;97.30;;;;;;5038368;28;20477;-91
2022/09/15 10:06:48;;;;;;;7.57;2.30;;;16.50;97.30;;;;;;5025325;28;20430;-90
2022/09/15 10:09:18;;;;;;;10.20;3.30;;;16.60;97.30;;;;;;5044525;28;20171;-91
2022/09/15 10:11:50;;;;;;;2.13;1.50;;;16.70;97.30;;;;;;5041253;28;20180;-91
2022/09/15 10:14:34;;;;;;;9.53;2.40;;;16.70;97.30;;;;;;5041440;28;20506;-91
2022/09/15 10:17:16;;;;;;;2.80;2.60;;;16.70;97.30;;;;;;5041942;28;20446;-91
2022/09/15 10:19:41;;;;;;;3.83;3.00;;;16.80;97.30;;;;;;5025686;28;20480;-92
2022/09/15 10:22:09;;;;;;;2.50;1.67;;;16.70;97.30;;;;;;5037219;28;20550;-92
2022/09/15 10:24:38;;;;;;;2.40;2.20;;;16.80;97.30;;;;;;5038241;28;20714;-92
2022/09/15 10:27:18;;;;;;;3.63;1.93;;;16.90;97.30;;;;;;5035016;28;20438;-91
2022/09/15 10:29:43;;;;;;;3.30;2.03;;;17.10;97.30;;;;;;5030565;28;20521;-91
2022/09/15 10:32:36;;;;;;;8.53;2.30;;;17.30;97.30;;;;;;5037145;28;20446;-91
2022/09/15 10:42:35;;;;;;;1.77;1.77;;;17.30;97.30;;;;;;4914325;29;20544;-91
2022/09/15 10:45:26;;;;;;;4.30;2.80;;;17.20;97.30;;;;;;4920817;29;20490;-91
2022/09/15 10:48:36;;;;;;;10.53;3.23;;;17.00;97.30;;;;;;4932042;29;20902;-92
2022/09/15 10:51:39;;;;;;;2.47;1.70;;;16.90;97.30;;;;;;4900265;29;20959;-92
2022/09/15 10:54:19;;;;;;;1.53;1.50;;;16.70;97.30;;;;;;5005235;28;20432;-92
2022/09/15 10:57:15;;;;;;;1.93;1.73;;;16.70;97.30;;;;;;5017588;28;20473;-92
2022/09/15 10:59:48;;;;;;;4.60;2.80;;;16.70;97.30;;;;;;4997568;28;20428;-91
2022/09/15 11:02:38;;;;;;;2.90;2.20;;;16.60;97.30;;;;;;5001165;28;20581;-92
2022/09/15 11:05:44;;;;;;;2.63;2.10;;;16.60;97.30;;;;;;4994349;28;20478;-90
2022/09/15 11:08:37;;;;;;;4.33;2.30;;;16.50;97.30;;;;;;5024424;28;20611;-91
2022/09/15 11:15:06;;;;;;;3.13;2.90;;;16.30;97.30;;;;;;4974183;28;20986;-91
2022/09/15 11:25:56;;;;;;;1.13;1.10;;;16.10;97.30;;;;;;5034034;28;20772;-91
2022/09/15 11:44:36;;;;;;;3.10;2.20;;;16.00;97.30;;;;;;5046601;28;20479;-92
2022/09/15 12:10:18;;;;;;;1.07;1.00;;;16.80;97.30;;;;;;5038975;28;20467;-94
2022/09/15 12:12:46;;;;;;;1.63;1.10;;;16.90;97.30;;;;;;5024291;28;20501;-92
2022/09/15 12:41:36;;;;;;;1.37;1.10;;;16.90;95.60;;;;;;5011438;28;20490;-93
2022/09/15 12:48:05;;;;;;;;;;;;;;;;;;;;;
2022/09/15 12:51:09;;;;;;;0.97;0.87;;;17.40;95.50;;;;;;4923636;28;20423;-92
2022/09/15 12:54:07;;;;;;;1.23;1.13;;;17.70;94.70;;;;;;4968919;28;20444;-93
2022/09/15 12:57:26;;;;;;;1.00;0.90;;;17.90;95.60;;;;;;4981183;28;20801;-92
2022/09/15 13:03:56;;;;;;;1.10;1.00;;;18.20;93.80;;;;;;4851703;29;20427;-93
2022/09/15 13:06:37;;;;;;;1.10;1.00;;;18.10;94.70;;;;;;4865110;29;20509;-92
2022/09/15 13:09:06;;;;;;;0.90;0.80;;;18.00;93.40;;;;;;4905514;29;20620;-92
2022/09/15 13:11:57;;;;;;;1.00;0.90;;;17.90;92.60;;;;;;4914905;29;20432;-94
2022/09/15 13:15:07;;;;;;;1.53;1.13;;;17.70;92.40;;;;;;4898241;29;20420;-93
2022/09/15 13:17:56;;;;;;;1.20;1.10;;;17.60;92.90;;;;;;4902615;29;20421;-92
2022/09/15 13:20:36;;;;;;;1.00;0.90;;;17.40;93.40;;;;;;4918944;28;20421;-92
2022/09/15 13:23:20;;;;;;;1.20;1.00;;;17.30;94.10;;;;;;4966001;28;20424;-93
2022/09/15 13:25:47;;;;;;;1.00;0.90;;;17.20;94.80;;;;;;4976931;28;20528;-93
2022/09/15 13:28:17;;;;;;;1.20;1.10;;;17.10;95.30;;;;;;4982936;28;20417;-93
2022/09/15 13:31:28;;;;;;;3.70;1.30;;;17.00;95.90;;;;;;4976384;28;20491;-94
2022/09/15 13:34:25;;;;;;;1.20;1.10;;;17.00;95.80;;;;;;4934242;29;20433;-93
2022/09/15 13:37:34;;;;;;;1.40;1.30;;;16.90;96.40;;;;;;4950267;28;20833;-92
2022/09/15 13:40:26;;;;;;;1.20;1.20;;;16.90;96.90;;;;;;4949873;28;20458;-92
2022/09/15 13:43:37;;;;;;;1.07;0.90;;;16.80;97.30;;;;;;4972206;28;20438;-93
2022/09/15 13:46:47;;;;;;;1.97;1.57;;;16.80;97.30;;;;;;4988743;28;20465;-94
2022/09/15 13:49:57;;;;;;;2.50;1.63;;;16.70;97.30;;;;;;4955431;28;20421;-92
2022/09/15 13:52:47;;;;;;;1.10;1.00;;;16.60;97.30;;;;;;4991199;28;20420;-94
2022/09/15 13:55:19;;;;;;;1.57;1.10;;;16.50;97.30;;;;;;4995091;28;20812;-93
2022/09/15 13:57:57;;;;;;;1.33;1.23;;;16.50;97.30;;;;;;4995300;28;20416;-93
2022/09/15 14:04:26;;;;;;;0.90;0.80;;;16.50;97.30;;;;;;4970361;28;20429;-92
2022/09/15 14:14:07;;;;;;;1.37;1.27;;;16.70;97.30;;;;;;4932077;28;20417;-93
2022/09/15 14:16:55;;;;;;;1.00;0.90;;;16.80;97.30;;;;;;4975250;28;20529;-90
2022/09/15 14:19:27;;;;;;;2.37;1.70;;;16.90;97.30;;;;;;4971409;28;20426;-92
2022/09/15 14:22:25;;;;;;;1.17;0.90;;;17.00;97.30;;;;;;4997739;28;20464;-92
2022/09/15 14:25:07;;;;;;;2.30;1.40;;;17.00;97.30;;;;;;4985561;28;20420;-93
2022/09/15 14:28:17;;;;;;;0.90;0.80;;;17.00;97.30;;;;;;4995632;28;20408;-94
2022/09/15 14:30:47;;;;;;;1.07;0.93;;;17.10;97.30;;;;;;4997705;28;20426;-93
2022/09/15 14:33:27;;;;;;;1.63;1.50;;;17.20;97.30;;;;;;4999035;28;20430;-91
2022/09/15 14:36:39;;;;;;;;;;;;;;;;;;;;;
2022/09/15 14:39:47;;;;;;;1.83;1.10;;;17.40;97.30;;;;;;4966210;28;20488;-93
2022/09/15 14:42:55;;;;;;;1.30;1.10;;;17.50;97.30;;;;;;4913628;29;20470;-92
2022/09/15 14:46:37;;;;;;;1.20;1.00;;;17.50;97.10;;;;;;4882905;29;20480;-92
2022/09/15 14:49:36;;;;;;;1.43;1.20;;;17.40;95.90;;;;;;4842534;29;20449;-89
2022/09/15 14:53:15;;;;;;;1.47;1.37;;;17.30;93.80;;;;;;4889296;29;20436;-93
2022/09/15 14:55:46;;;;;;;1.57;1.37;;;17.40;94.30;;;;;;4892633;29;20437;-92
2022/09/15 15:02:17;;;;;;;1.37;1.27;;;17.60;92.90;;;;;;4897593;29;20473;-93
2022/09/15 15:05:06;;;;;;;2.83;1.93;;;17.60;92.80;;;;;;4908364;29;20496;-95
2022/09/15 15:07:47;;;;;;;1.20;1.10;;;17.70;93.10;;;;;;4907381;29;20472;-93
2022/09/15 15:10:36;;;;;;;1.00;0.90;;;17.70;92.40;;;;;;4979462;28;20919;-93
2022/09/15 15:13:15;;;;;;;1.50;1.40;;;17.90;91.40;;;;;;4998950;28;20423;-92
2022/09/15 15:15:45;;;;;;;0.90;0.87;;;18.00;92.60;;;;;;4998055;28;20448;-93
2022/09/15 15:21:47;;;;;;;0.90;0.80;;;18.70;92.00;;;;;;4995494;28;20467;-93
2022/09/15 15:28:06;;;;;;;1.30;1.20;;;19.40;91.00;;;;;;5005739;28;20420;-93
2022/09/15 15:31:27;;;;;;;31.17;1.50;;;19.50;91.50;;;;;;5014322;28;20420;-92
2022/09/15 15:34:07;;;;;;;1.87;1.60;;;19.60;91.70;;;;;;4968848;28;20511;-94
2022/09/15 15:36:36;;;;;;;1.00;0.90;;;19.50;90.70;;;;;;4998070;28;21057;-93
2022/09/15 15:39:47;;;;;;;1.40;1.30;;;19.40;90.10;;;;;;4996389;28;20447;-92
2022/09/15 15:42:27;;;;;;;1.00;0.90;;;19.40;89.90;;;;;;5001776;28;20464;-92
2022/09/15 15:45:57;;;;;;;0.90;0.80;;;19.40;89.00;;;;;;5013735;28;20447;-92
2022/09/15 15:48:37;;;;;;;1.03;0.93;;;19.50;88.50;;;;;;4931779;29;20435;-93
2022/09/15 15:51:25;;;;;;;1.77;1.67;;;19.80;88.90;;;;;;4924048;29;20432;-94
2022/09/15 15:54:17;;;;;;;1.23;1.13;;;19.90;88.20;;;;;;4953154;28;20515;-94
2022/09/15 15:56:47;;;;;;;2.60;1.20;;;19.80;87.30;;;;;;5011680;28;20496;-94
2022/09/15 15:59:16;;;;;;;1.40;1.13;;;19.60;86.90;;;;;;5008731;28;20428;-92
2022/09/15 16:01:52;;;;;;;1.40;1.30;;;19.50;88.70;;;;;;4994340;28;20464;-92
2022/09/15 16:04:18;;;;;;;0.93;0.90;;;19.40;88.50;;;;;;5006432;28;20427;-92
2022/09/15 16:07:21;;;;;;;0.93;0.87;;;19.30;87.80;;;;;;4995172;28;21017;-92
2022/09/15 16:09:53;;;;;;;1.10;1.00;;;19.10;88.10;;;;;;5015280;28;20425;-92
2022/09/15 16:12:21;;;;;;;1.80;0.90;;;18.80;88.80;;;;;;4996746;28;20425;-91
2022/09/15 16:14:46;;;;;;;1.07;0.90;;;18.60;89.50;;;;;;4987022;28;20428;-91
2022/09/15 16:17:12;;;;;;;1.10;1.00;;;18.40;90.20;;;;;;4994553;28;20485;-92
2022/09/15 16:19:47;;;;;;;1.10;1.00;;;18.30;90.70;;;;;;4996011;28;20189;-92
2022/09/15 16:22:19;;;;;;;1.20;0.97;;;18.10;91.30;;;;;;4996373;28;20200;-91
2022/09/15 16:24:50;;;;;;;1.47;1.43;;;18.00;91.60;;;;;;5002654;28;20507;-91
2022/09/15 16:27:17;;;;;;;0.93;0.90;;;17.80;91.90;;;;;;5013392;28;20463;-91
2022/09/15 16:29:45;;;;;;;1.10;1.00;;;17.70;91.90;;;;;;5004973;28;20553;-94
2022/09/15 16:32:17;;;;;;;1.53;1.43;;;17.60;92.00;;;;;;4998305;28;20486;-91
2022/09/15 16:34:43;;;;;;;1.30;1.20;;;17.50;92.70;;;;;;5004854;28;20851;-92
2022/09/15 16:37:11;;;;;;;1.20;0.90;;;17.40;92.90;;;;;;4999360;28;20478;-92
2022/09/15 16:39:37;;;;;;;1.23;1.13;;;17.40;92.70;;;;;;5001317;28;20233;-92
2022/09/15 16:42:05;;;;;;;1.70;0.97;;;17.40;92.40;;;;;;4999638;28;20463;-91
2022/09/15 16:44:31;;;;;;;0.80;0.80;;;17.40;92.70;;;;;;5012937;28;20363;-92
2022/09/15 16:46:56;;;;;;;13.13;1.77;;;17.40;93.20;;;;;;4995304;28;20448;-92
2022/09/15 16:49:22;;;;;;;5.53;1.57;;;17.30;92.70;;;;;;4994871;28;20636;-92
2022/09/15 16:51:47;;;;;;;1.10;1.00;;;17.30;92.30;;;;;;4996502;28;20192;-91
2022/09/15 16:54:15;;;;;;;1.00;0.90;;;17.20;92.70;;;;;;5000846;28;20541;-90
2022/09/15 16:56:40;;;;;;;1.10;1.00;;;17.20;92.80;;;;;;4990284;28;20247;-92
2022/09/15 16:59:06;;;;;;;3.83;1.93;;;17.20;93.20;;;;;;4997958;28;20507;-92
2022/09/15 17:01:31;;;;;;;4.17;1.43;;;17.20;93.00;;;;;;4988197;28;20198;-90
2022/09/15 17:03:58;;;;;;;2.53;1.30;;;17.10;93.00;;;;;;5005799;28;20178;-91
2022/09/15 17:06:23;;;;;;;16.73;1.30;;;17.10;93.10;;;;;;5011585;28;20299;-90
2022/09/15 17:08:52;;;;;;;1.00;0.90;;;17.10;93.70;;;;;;4984593;28;20935;-91
2022/09/15 17:11:19;;;;;;;1.10;1.00;;;17.00;93.90;;;;;;4980844;28;20273;-92
2022/09/15 17:13:45;;;;;;;1.43;1.33;;;17.00;93.70;;;;;;4995786;28;20479;-90
2022/09/15 17:16:18;;;;;;;1.63;1.10;;;17.00;93.80;;;;;;5012134;28;20830;-91
2022/09/15 17:18:46;;;;;;;1.00;0.90;;;17.00;94.10;;;;;;5011133;28;20420;-91
2022/09/15 17:21:16;;;;;;;1.10;1.00;;;16.90;94.40;;;;;;5013476;28;20558;-91
2022/09/15 17:23:46;;;;;;;21.03;3.23;;;16.90;94.40;;;;;;4981506;28;21001;-90
2022/09/15 17:26:23;;;;;;;1.00;1.00;;;16.80;93.90;;;;;;5018035;28;20444;-91
2022/09/15 17:28:50;;;;;;;1.00;0.90;;;16.80;94.50;;;;;;5007388;28;20424;-92
2022/09/15 17:31:21;;;;;;;1.10;1.00;;;16.80;94.70;;;;;;5000095;28;20506;-90
2022/09/15 17:33:49;;;;;;;2.73;2.53;;;16.80;94.90;;;;;;4999462;28;20962;-90
2022/09/15 17:36:15;;;;;;;1.43;1.33;;;16.70;95.10;;;;;;4997556;28;20436;-91
2022/09/15 17:38:41;;;;;;;2.93;1.43;;;16.70;95.10;;;;;;4997795;28;20864;-90
2022/09/15 17:41:30;;;;;;;1.60;1.50;;;16.60;95.40;;;;;;5001686;28;20960;-91
2022/09/15 17:43:56;;;;;;;1.60;1.43;;;16.60;95.50;;;;;;5014225;28;20428;-91
2022/09/15 17:46:21;;;;;;;1.10;1.00;;;16.50;95.50;;;;;;5014213;28;20436;-92
2022/09/15 17:48:47;;;;;;;1.77;1.20;;;16.50;95.60;;;;;;5014036;28;20179;-91
2022/09/15 17:51:18;;;;;;;1.40;1.30;;;16.40;95.90;;;;;;5001506;28;20173;-91
2022/09/15 17:53:46;;;;;;;1.70;1.07;;;16.40;96.10;;;;;;4986535;28;20184;-91
2022/09/15 17:56:12;;;;;;;0.97;0.87;;;16.30;96.30;;;;;;4994658;28;20449;-91
2022/09/15 17:58:38;;;;;;;1.37;1.27;;;16.30;96.30;;;;;;4998200;28;20420;-90
2022/09/15 18:01:04;;;;;;;1.10;1.00;;;16.20;96.40;;;;;;4997426;28;20301;-90
2022/09/15 18:03:35;;;;;;;1.00;0.90;;;16.20;96.60;;;;;;4997975;28;20456;-91
2022/09/15 18:06:07;;;;;;;1.20;1.10;;;16.20;96.70;;;;;;5009745;28;20189;-91
2022/09/15 18:08:36;;;;;;;1.17;0.90;;;16.10;96.50;;;;;;5003737;28;20425;-90
2022/09/15 18:11:06;;;;;;;1.30;1.20;;;16.10;96.40;;;;;;5015911;28;20432;-92
2022/09/15 18:13:32;;;;;;;1.30;1.20;;;16.10;96.50;;;;;;5015282;28;20428;-91
2022/09/15 18:16:18;;;;;;;1.00;0.90;;;16.10;96.60;;;;;;5018159;28;20466;-91
2022/09/15 18:18:46;;;;;;;0.80;0.80;;;16.10;96.60;;;;;;4998445;28;20428;-91
2022/09/15 18:23:45;;;;;;;0.90;0.80;;;16.10;96.90;;;;;;5036455;28;20463;-91
2022/09/15 18:26:11;;;;;;;1.20;1.10;;;16.00;97.00;;;;;;5024485;28;20434;-91
2022/09/15 18:28:36;;;;;;;1.37;1.27;;;16.00;96.90;;;;;;5023683;28;20269;-91
2022/09/15 18:31:02;;;;;;;5.50;1.87;;;16.00;97.20;;;;;;5030994;28;20199;-91
2022/09/15 18:33:27;;;;;;;1.20;1.10;;;16.00;97.20;;;;;;5057815;28;20677;-90
2022/09/15 18:35:55;;;;;;;1.53;1.20;;;16.00;97.30;;;;;;5054415;28;20234;-91
2022/09/15 18:38:21;;;;;;;1.47;1.43;;;16.00;97.30;;;;;;5057162;28;20180;-91
2022/09/15 18:40:52;;;;;;;1.20;1.10;;;15.90;97.30;;;;;;5041639;28;20426;-91
2022/09/15 18:43:18;;;;;;;5.53;2.80;;;15.90;97.30;;;;;;5040680;28;20425;-90
2022/09/15 18:45:44;;;;;;;1.00;0.90;;;15.90;97.30;;;;;;5040493;28;20434;-92
2022/09/15 18:48:11;;;;;;;6.00;3.10;;;15.90;97.30;;;;;;5037376;28;20465;-91